Time;durP1;ratioP1;P1;durP2;ratioP2;P2;SDS_P1;SDS_P2;PMS_P1;PMS_P2;Temp;Humidity;BMP_temperature;BMP_pressure;BME280_temperature;BME280_humidity;BME280_pressure;Samples;Min_cycle;Max_cycle;Signal;HPM_P1;HPM_P2
2023/01/17 00:00:34;;;;;;;59.10;32.65;;;2.60;99.90;;;;;;5013675;28;20407;-78
2023/01/17 00:03:00;;;;;;;56.60;31.13;;;2.60;99.90;;;;;;4995200;28;20060;-77
2023/01/17 00:10:58;;;;;;;;;;;2.60;99.90;;;;;;5027256;28;20467;-78
2023/01/17 00:13:24;;;;;;;44.70;24.08;;;2.70;99.90;;;;;;5004259;28;20332;-79
2023/01/17 00:15:51;;;;;;;40.22;22.27;;;2.70;99.90;;;;;;5015764;28;20277;-78
2023/01/17 00:18:18;;;;;;;37.55;21.60;;;2.60;99.90;;;;;;5003668;28;20049;-78
2023/01/17 00:26:01;;;;;;;;;;;2.50;99.90;;;;;;5011721;28;20812;-79
2023/01/17 00:26:30;;;;;;;29.10;16.73;;;2.40;99.90;;;;;;5024336;28;19920;-78
2023/01/17 01:35:51;;;;;;;44.95;24.67;;;2.50;99.90;;;;;;5009872;28;20057;-79
2023/01/17 01:38:20;;;;;;;54.47;28.63;;;2.60;99.90;;;;;;4999198;28;20160;-78
2023/01/17 01:40:50;;;;;;;48.42;25.77;;;2.60;99.90;;;;;;5006091;28;20045;-78
2023/01/17 01:43:20;;;;;;;48.30;25.80;;;2.60;99.90;;;;;;5013356;28;20032;-79
2023/01/17 01:45:54;;;;;;;45.72;24.60;;;2.60;99.90;;;;;;5003061;28;20053;-79
2023/01/17 01:48:38;;;;;;;35.53;18.90;;;2.70;99.90;;;;;;5003950;28;20195;-77
2023/01/17 01:51:12;;;;;;;38.92;21.15;;;2.60;99.90;;;;;;5004592;28;20152;-78
2023/01/17 01:53:44;;;;;;;31.27;17.23;;;2.60;99.90;;;;;;4982634;28;20120;-78
2023/01/17 01:56:13;;;;;;;26.25;15.13;;;2.60;99.90;;;;;;5027801;28;20076;-80
2023/01/17 01:58:44;;;;;;;28.30;14.70;;;2.60;99.90;;;;;;5037623;28;20048;-78
2023/01/17 02:01:11;;;;;;;26.70;13.38;;;2.50;99.90;;;;;;4990051;28;20055;-78
2023/01/17 02:03:40;;;;;;;23.25;12.02;;;2.40;99.90;;;;;;5001115;28;20037;-78
2023/01/17 02:06:24;;;;;;;20.95;12.57;;;2.30;99.90;;;;;;4999544;28;20041;-79
2023/01/17 02:08:51;;;;;;;19.02;10.38;;;2.30;99.90;;;;;;5001946;28;20566;-78
2023/01/17 02:11:18;;;;;;;19.45;11.30;;;2.20;99.90;;;;;;5004552;28;20676;-78
2023/01/17 02:13:44;;;;;;;14.52;8.20;;;2.20;99.90;;;;;;5012067;28;20048;-78
2023/01/17 02:16:23;;;;;;;19.73;9.88;;;2.20;99.90;;;;;;5000726;28;20057;-78
2023/01/17 02:19:08;;;;;;;20.60;12.07;;;2.20;99.90;;;;;;5018857;28;20049;-78
2023/01/17 02:21:44;;;;;;;;;;;2.20;99.90;;;;;;5003323;28;20133;-79
2023/01/17 02:24:56;;;;;;;18.75;10.63;;;2.30;99.90;;;;;;5008472;28;19921;-79
2023/01/17 02:27:42;;;;;;;21.40;8.90;;;2.20;99.90;;;;;;5012759;28;20033;-79
2023/01/17 02:30:31;;;;;;;16.95;9.50;;;2.20;99.90;;;;;;4994837;28;20565;-79
2023/01/17 02:33:10;;;;;;;18.55;10.32;;;2.10;99.90;;;;;;4996794;28;20139;-80
2023/01/17 02:36:02;;;;;;;18.70;10.65;;;1.90;99.90;;;;;;5024267;28;20101;-79
2023/01/17 02:38:49;;;;;;;23.73;12.40;;;1.90;99.90;;;;;;4995160;28;20064;-79
2023/01/17 02:41:22;;;;;;;31.50;14.68;;;1.90;99.90;;;;;;5030499;28;20041;-78
2023/01/17 02:43:51;;;;;;;32.90;15.15;;;2.00;99.90;;;;;;5023399;28;20071;-79
2023/01/17 02:46:18;;;;;;;29.80;15.80;;;2.00;99.90;;;;;;5018149;28;20033;-78
2023/01/17 02:48:46;;;;;;;28.70;13.98;;;2.10;99.90;;;;;;5022755;28;20055;-79
2023/01/17 02:51:37;;;;;;;22.00;12.90;;;2.20;99.90;;;;;;5020920;28;20034;-82
2023/01/17 02:54:37;;;;;;;21.30;11.55;;;2.20;99.90;;;;;;5007253;28;20041;-81
2023/01/17 02:57:41;;;;;;;19.92;10.55;;;2.10;99.90;;;;;;5017548;28;20139;-79
2023/01/17 03:00:09;;;;;;;;;;;2.00;99.90;;;;;;5007858;28;20136;-79
2023/01/17 03:03:00;;;;;;;22.13;10.10;;;2.00;99.90;;;;;;5008296;28;20309;-80
2023/01/17 03:05:49;;;;;;;24.67;13.40;;;1.80;99.90;;;;;;5018859;28;20059;-80
2023/01/17 03:08:17;;;;;;;30.20;13.95;;;1.70;99.90;;;;;;5019123;28;20049;-79
2023/01/17 03:10:44;;;;;;;25.48;12.93;;;1.70;99.90;;;;;;5020153;28;20037;-79
2023/01/17 03:13:10;;;;;;;30.17;13.93;;;1.70;99.90;;;;;;4995832;28;20050;-79
2023/01/17 03:15:39;;;;;;;27.27;14.63;;;1.70;99.90;;;;;;5001172;28;20045;-79
2023/01/17 03:18:12;;;;;;;31.70;16.17;;;1.80;99.90;;;;;;5009024;28;20053;-80
2023/01/17 03:20:38;;;;;;;40.20;20.17;;;1.80;99.90;;;;;;5003113;28;20072;-79
2023/01/17 03:23:05;;;;;;;32.38;15.88;;;1.80;99.90;;;;;;5009820;28;20076;-78
2023/01/17 03:25:32;;;;;;;35.55;16.85;;;2.00;99.90;;;;;;5007199;28;20041;-79
2023/01/17 03:27:59;;;;;;;35.03;18.05;;;2.10;99.90;;;;;;5020984;28;20124;-78
2023/01/17 03:30:26;;;;;;;37.40;19.13;;;2.20;99.90;;;;;;5010448;28;20127;-77
2023/01/17 03:32:53;;;;;;;31.80;14.90;;;2.20;99.90;;;;;;5024826;28;20052;-78
2023/01/17 03:35:20;;;;;;;35.35;15.75;;;2.20;99.90;;;;;;5015473;28;20041;-78
2023/01/17 03:37:47;;;;;;;31.92;15.50;;;2.20;99.90;;;;;;5020271;28;20061;-79
2023/01/17 03:40:13;;;;;;;26.95;14.60;;;2.20;99.90;;;;;;5021753;28;20080;-78
2023/01/17 03:42:40;;;;;;;31.48;16.77;;;2.20;99.90;;;;;;5018097;28;20043;-78
2023/01/17 03:45:07;;;;;;;27.50;14.70;;;2.20;99.90;;;;;;4994726;28;20136;-79
2023/01/17 03:47:35;;;;;;;30.67;16.45;;;2.20;99.90;;;;;;5010317;28;20035;-79
2023/01/17 03:50:02;;;;;;;28.73;15.00;;;2.20;99.90;;;;;;5003612;28;20132;-78
2023/01/17 03:52:29;;;;;;;26.90;14.27;;;2.10;99.90;;;;;;4995938;28;20041;-79
2023/01/17 03:54:56;;;;;;;32.33;16.35;;;2.10;99.90;;;;;;4998027;28;20068;-79
2023/01/17 03:57:23;;;;;;;27.60;14.68;;;2.20;99.90;;;;;;5012130;28;20055;-79
2023/01/17 03:59:49;;;;;;;22.33;12.57;;;2.10;99.90;;;;;;5011055;28;20173;-78
2023/01/17 04:02:16;;;;;;;28.10;14.77;;;2.10;99.90;;;;;;5009242;28;20045;-80
2023/01/17 04:04:43;;;;;;;24.00;13.60;;;2.10;99.90;;;;;;4997068;28;20044;-79
2023/01/17 04:07:10;;;;;;;20.35;10.07;;;2.10;99.90;;;;;;5010636;28;20041;-78
2023/01/17 04:09:37;;;;;;;19.48;11.13;;;2.10;99.90;;;;;;5011305;28;20075;-80
2023/01/17 04:12:06;;;;;;;19.13;9.95;;;2.00;99.90;;;;;;4993646;28;20060;-78
2023/01/17 04:14:33;;;;;;;14.32;8.43;;;1.90;99.90;;;;;;4996810;28;20067;-78
2023/01/17 04:17:00;;;;;;;13.23;7.38;;;1.90;99.90;;;;;;4999367;28;20393;-77
2023/01/17 04:19:26;;;;;;;15.25;8.02;;;1.90;99.90;;;;;;5023844;28;20583;-78
2023/01/17 04:21:53;;;;;;;10.73;6.95;;;1.80;99.90;;;;;;5013107;28;20037;-79
2023/01/17 04:24:20;;;;;;;10.90;6.35;;;1.70;99.90;;;;;;5018929;28;20059;-79
2023/01/17 04:26:46;;;;;;;11.40;6.40;;;1.60;99.90;;;;;;5013501;28;20055;-78
2023/01/17 04:29:13;;;;;;;4.28;3.45;;;1.50;99.90;;;;;;5015512;28;20046;-78
2023/01/17 04:31:40;;;;;;;5.65;2.45;;;1.30;99.90;;;;;;5007816;28;20095;-77
2023/01/17 04:34:06;;;;;;;3.03;2.72;;;1.10;99.90;;;;;;5020342;28;20037;-78
2023/01/17 04:36:33;;;;;;;3.10;2.17;;;1.00;99.90;;;;;;5014474;28;20037;-78
2023/01/17 04:39:00;;;;;;;4.43;3.10;;;0.90;99.90;;;;;;4999628;28;20053;-79
2023/01/17 04:41:26;;;;;;;5.93;3.70;;;0.80;99.90;;;;;;4996352;28;20076;-79
2023/01/17 04:43:53;;;;;;;4.22;3.40;;;0.80;99.90;;;;;;4996197;28;20351;-77
2023/01/17 04:46:20;;;;;;;7.82;4.63;;;0.80;99.90;;;;;;5000220;28;20084;-79
2023/01/17 04:48:47;;;;;;;8.52;4.78;;;0.80;99.90;;;;;;4994942;28;20050;-77
2023/01/17 04:51:13;;;;;;;6.10;4.25;;;0.80;99.90;;;;;;5009697;28;20044;-78
2023/01/17 04:53:40;;;;;;;8.82;5.82;;;0.80;99.90;;;;;;5001610;28;20143;-78
2023/01/17 04:56:07;;;;;;;8.02;4.57;;;0.70;99.90;;;;;;5001807;28;20041;-79
2023/01/17 04:58:34;;;;;;;13.07;7.72;;;0.80;99.90;;;;;;5028048;28;20048;-77
2023/01/17 05:01:06;;;;;;;16.40;9.35;;;0.70;99.90;;;;;;5003564;28;20437;-78
2023/01/17 05:03:34;;;;;;;16.25;8.45;;;0.80;99.90;;;;;;5015667;28;20115;-79
2023/01/17 05:06:01;;;;;;;18.48;10.25;;;0.80;99.90;;;;;;5022751;28;20049;-79
2023/01/17 05:08:27;;;;;;;17.77;10.50;;;0.70;99.90;;;;;;5013662;28;20506;-79
2023/01/17 05:10:54;;;;;;;17.80;9.63;;;0.80;99.90;;;;;;5018518;28;20392;-78
2023/01/17 05:13:22;;;;;;;18.48;9.57;;;0.80;99.90;;;;;;4991494;28;20041;-79
2023/01/17 05:15:49;;;;;;;18.05;10.10;;;0.80;99.90;;;;;;5008906;28;20051;-80
2023/01/17 05:18:17;;;;;;;18.20;10.20;;;0.70;99.90;;;;;;5015035;28;20041;-79
2023/01/17 05:20:45;;;;;;;23.70;12.43;;;0.60;99.90;;;;;;5020196;28;20140;-79
2023/01/17 05:23:11;;;;;;;22.23;11.57;;;0.70;99.90;;;;;;5001173;28;20075;-78
2023/01/17 05:25:42;;;;;;;21.65;10.48;;;0.70;99.90;;;;;;5021456;28;20462;-79
2023/01/17 05:28:11;;;;;;;27.67;15.13;;;0.70;99.90;;;;;;4994369;28;20049;-79
2023/01/17 05:30:38;;;;;;;27.17;13.10;;;0.70;99.90;;;;;;5013527;28;20617;-78
2023/01/17 05:33:06;;;;;;;26.17;13.25;;;0.70;99.90;;;;;;4991383;28;20354;-79
2023/01/17 05:35:33;;;;;;;29.77;15.52;;;0.60;99.90;;;;;;5021021;28;20041;-78
2023/01/17 05:38:00;;;;;;;25.85;12.88;;;0.60;99.90;;;;;;5019216;28;20185;-79
2023/01/17 05:40:29;;;;;;;30.20;13.93;;;0.60;99.90;;;;;;5034511;28;20074;-78
2023/01/17 05:42:57;;;;;;;40.00;17.70;;;0.60;99.90;;;;;;5016843;28;20120;-80
2023/01/17 05:45:27;;;;;;;30.67;15.60;;;0.60;99.90;;;;;;5000651;28;20059;-82
2023/01/17 05:47:55;;;;;;;35.75;16.42;;;0.60;99.90;;;;;;5010965;28;20061;-80
2023/01/17 05:50:28;;;;;;;37.17;17.10;;;0.60;99.90;;;;;;5012952;28;20049;-80
2023/01/17 05:53:01;;;;;;;46.88;19.92;;;0.60;99.90;;;;;;5015719;28;20041;-79
2023/01/17 05:55:29;;;;;;;33.08;15.88;;;0.60;99.90;;;;;;5018217;28;20047;-78
2023/01/17 05:57:56;;;;;;;29.25;14.40;;;0.60;99.90;;;;;;5016351;28;20068;-79
2023/01/17 06:00:23;;;;;;;30.35;16.25;;;0.50;99.90;;;;;;5004290;28;20057;-81
2023/01/17 06:02:54;;;;;;;26.65;12.38;;;0.50;99.90;;;;;;5018567;28;20117;-82
2023/01/17 06:05:23;;;;;;;27.85;12.63;;;0.60;99.90;;;;;;5018306;28;20041;-80
2023/01/17 06:07:50;;;;;;;30.77;14.77;;;0.50;99.90;;;;;;5015729;28;20111;-78
2023/01/17 06:10:18;;;;;;;33.08;16.50;;;0.50;99.90;;;;;;5010966;28;20525;-79
2023/01/17 06:12:46;;;;;;;34.65;16.63;;;0.50;99.90;;;;;;5020950;28;20425;-82
2023/01/17 06:15:15;;;;;;;27.92;13.90;;;0.50;99.90;;;;;;5015852;28;20513;-79
2023/01/17 06:17:41;;;;;;;38.88;18.95;;;0.40;99.90;;;;;;5010732;28;20431;-82
2023/01/17 06:20:10;;;;;;;42.53;20.63;;;0.50;99.90;;;;;;5014261;28;20388;-79
2023/01/17 06:22:38;;;;;;;49.35;22.83;;;0.40;99.90;;;;;;5011787;28;20326;-79
2023/01/17 06:25:06;;;;;;;50.10;22.75;;;0.40;99.90;;;;;;5009624;28;20199;-81
2023/01/17 06:27:32;;;;;;;61.50;25.15;;;0.50;99.90;;;;;;5019241;28;20072;-81
2023/01/17 06:29:59;;;;;;;51.88;22.60;;;0.50;99.90;;;;;;5021127;28;20043;-82
2023/01/17 06:32:26;;;;;;;61.35;26.55;;;0.50;99.90;;;;;;5017546;28;20041;-83
2023/01/17 06:34:52;;;;;;;83.30;30.00;;;0.50;99.90;;;;;;5019739;28;20394;-82
2023/01/17 06:37:19;;;;;;;67.88;28.65;;;0.50;99.90;;;;;;5012602;28;20068;-81
2023/01/17 06:39:46;;;;;;;57.97;24.38;;;0.50;99.90;;;;;;5013726;28;20043;-82
2023/01/17 06:42:13;;;;;;;57.95;23.85;;;0.50;99.90;;;;;;5008844;28;20661;-82
2023/01/17 06:44:39;;;;;;;62.13;25.13;;;0.50;99.90;;;;;;5021300;28;20044;-80
2023/01/17 06:47:06;;;;;;;54.40;24.05;;;0.50;99.90;;;;;;5019018;28;20041;-81
2023/01/17 06:49:33;;;;;;;64.22;26.10;;;0.50;99.90;;;;;;5005543;28;20468;-80
2023/01/17 06:51:59;;;;;;;57.05;23.10;;;0.50;99.90;;;;;;4998655;28;20038;-79
2023/01/17 06:54:26;;;;;;;62.90;25.17;;;0.50;99.90;;;;;;5002204;28;20076;-79
2023/01/17 06:56:53;;;;;;;65.18;23.27;;;0.50;99.90;;;;;;5011664;28;20049;-79
2023/01/17 06:59:20;;;;;;;64.03;28.05;;;0.50;99.90;;;;;;5008826;28;20490;-79
2023/01/17 07:01:47;;;;;;;73.95;26.63;;;0.50;99.90;;;;;;5004682;28;20489;-79
2023/01/17 07:04:14;;;;;;;69.55;23.83;;;0.50;99.90;;;;;;5010257;28;20061;-83
2023/01/17 07:06:40;;;;;;;90.05;32.13;;;0.50;99.90;;;;;;5014738;28;20045;-79
2023/01/17 07:09:07;;;;;;;72.82;27.30;;;0.50;99.90;;;;;;5016639;28;20406;-79
2023/01/17 07:11:33;;;;;;;83.18;29.80;;;0.50;99.90;;;;;;5007462;28;20625;-79
2023/01/17 07:14:00;;;;;;;94.07;31.48;;;0.50;99.90;;;;;;5011667;28;20044;-80
2023/01/17 07:16:27;;;;;;;111.93;34.38;;;0.50;99.90;;;;;;5010732;28;20311;-78
2023/01/17 07:18:55;;;;;;;93.45;31.02;;;0.50;99.90;;;;;;4996911;28;20049;-81
2023/01/17 07:21:22;;;;;;;86.10;31.33;;;0.50;99.90;;;;;;5005093;28;20518;-77
2023/01/17 07:23:49;;;;;;;67.20;26.25;;;0.60;99.90;;;;;;5001327;28;20076;-79
2023/01/17 07:26:17;;;;;;;92.32;29.27;;;0.60;99.90;;;;;;4993886;28;20192;-79
2023/01/17 07:28:44;;;;;;;71.13;26.90;;;0.60;99.90;;;;;;5013476;28;20041;-81
2023/01/17 07:31:10;;;;;;;65.20;26.55;;;0.60;99.90;;;;;;5002713;28;20042;-79
2023/01/17 07:33:37;;;;;;;68.82;22.98;;;0.60;99.90;;;;;;5009056;28;20073;-78
2023/01/17 07:36:06;;;;;;;62.30;22.63;;;0.60;99.90;;;;;;5008017;28;20065;-82
2023/01/17 07:38:33;;;;;;;57.53;22.90;;;0.60;99.90;;;;;;5013673;28;21138;-79
2023/01/17 07:41:01;;;;;;;59.78;19.92;;;0.60;99.90;;;;;;4988252;28;20414;-79
2023/01/17 07:43:28;;;;;;;65.30;21.75;;;0.60;99.90;;;;;;5030984;28;20128;-80
2023/01/17 07:45:55;;;;;;;65.05;22.88;;;0.60;99.90;;;;;;5012707;28;20046;-79
2023/01/17 07:48:23;;;;;;;52.97;20.88;;;0.60;99.90;;;;;;5011629;28;20044;-81
2023/01/17 07:50:55;;;;;;;72.05;24.30;;;0.60;99.90;;;;;;5014029;28;20513;-79
2023/01/17 07:53:26;;;;;;;54.00;18.50;;;0.60;99.90;;;;;;5010012;28;20463;-79
2023/01/17 07:55:53;;;;;;;51.33;20.13;;;0.60;99.90;;;;;;5016901;28;20055;-79
2023/01/17 07:58:21;;;;;;;60.88;21.67;;;0.70;99.90;;;;;;4997996;28;20430;-79
2023/01/17 08:00:47;;;;;;;64.53;22.17;;;0.70;99.90;;;;;;5016186;28;20041;-79
2023/01/17 08:03:16;;;;;;;61.63;21.95;;;0.80;99.90;;;;;;5016934;28;20069;-81
2023/01/17 08:05:51;;;;;;;67.80;26.23;;;0.70;99.90;;;;;;4998860;28;20124;-80
2023/01/17 08:08:18;;;;;;;65.93;24.08;;;0.70;99.90;;;;;;4997929;28;20642;-83
2023/01/17 08:10:45;;;;;;;84.82;30.15;;;0.80;99.90;;;;;;5021657;28;20387;-85
2023/01/17 08:13:13;;;;;;;89.80;33.25;;;0.70;99.90;;;;;;5017306;28;20048;-85
2023/01/17 08:15:40;;;;;;;94.38;35.13;;;0.80;99.90;;;;;;5000518;28;20406;-81
2023/01/17 08:18:06;;;;;;;82.50;31.05;;;0.70;99.90;;;;;;5014729;28;20427;-79
2023/01/17 08:20:33;;;;;;;81.75;28.17;;;0.80;99.90;;;;;;5001754;28;20119;-80
2023/01/17 08:22:59;;;;;;;83.25;31.23;;;0.70;99.90;;;;;;4993492;28;20046;-81
2023/01/17 08:25:26;;;;;;;83.35;31.33;;;0.70;99.90;;;;;;5020702;28;20053;-78
2023/01/17 08:27:57;;;;;;;75.60;28.20;;;0.80;99.90;;;;;;4995143;28;20055;-82
2023/01/17 08:30:25;;;;;;;70.50;29.25;;;0.80;99.90;;;;;;5018350;28;20049;-81
2023/01/17 08:32:52;;;;;;;71.95;27.55;;;0.80;99.90;;;;;;5012053;28;20654;-81
2023/01/17 08:35:20;;;;;;;69.43;25.52;;;0.80;99.90;;;;;;5010357;28;20049;-84
2023/01/17 08:37:51;;;;;;;72.63;26.92;;;0.80;99.90;;;;;;5014605;28;20075;-79
2023/01/17 08:40:18;;;;;;;71.68;26.42;;;0.70;99.90;;;;;;5015453;28;20273;-78
2023/01/17 08:42:59;;;;;;;72.40;26.13;;;0.80;99.90;;;;;;5038633;28;20068;-78
2023/01/17 08:45:27;;;;;;;69.35;27.08;;;0.80;99.90;;;;;;5016546;28;20048;-78
2023/01/17 08:47:56;;;;;;;72.43;26.83;;;0.80;99.90;;;;;;4990103;28;20529;-79
2023/01/17 08:50:24;;;;;;;75.40;27.20;;;0.80;99.90;;;;;;5011491;28;20049;-78
2023/01/17 08:52:57;;;;;;;63.85;24.35;;;0.80;99.90;;;;;;5017322;28;20140;-79
2023/01/17 08:55:26;;;;;;;62.72;25.80;;;0.80;99.90;;;;;;5011857;28;20041;-78
2023/01/17 08:57:54;;;;;;;67.20;24.65;;;0.80;99.90;;;;;;5001336;28;20635;-79
2023/01/17 09:00:22;;;;;;;56.33;24.00;;;0.90;99.90;;;;;;5014240;28;20737;-79
2023/01/17 09:02:51;;;;;;;58.00;22.75;;;0.90;99.90;;;;;;5008243;28;20053;-79
2023/01/17 09:05:18;;;;;;;72.95;26.13;;;0.90;99.90;;;;;;5021469;28;20360;-80
2023/01/17 09:07:44;;;;;;;48.17;19.90;;;0.90;99.90;;;;;;5005591;28;20060;-80
2023/01/17 09:10:11;;;;;;;63.08;23.05;;;0.90;99.90;;;;;;4997167;28;20042;-79
2023/01/17 09:12:39;;;;;;;53.88;22.58;;;0.90;99.90;;;;;;5016802;28;20053;-80
2023/01/17 09:15:06;;;;;;;54.22;24.42;;;0.90;99.90;;;;;;5011064;28;20128;-81
2023/01/17 09:17:32;;;;;;;50.08;21.70;;;0.90;99.90;;;;;;5017769;28;20056;-81
2023/01/17 09:19:59;;;;;;;49.90;20.33;;;1.00;99.90;;;;;;5017646;28;20650;-80
2023/01/17 09:22:26;;;;;;;42.95;20.40;;;0.90;99.90;;;;;;5005312;28;20041;-79
2023/01/17 09:24:52;;;;;;;50.97;22.85;;;0.90;99.90;;;;;;5015658;28;20124;-80
2023/01/17 09:27:19;;;;;;;63.35;23.08;;;0.90;99.90;;;;;;5028459;28;20112;-78
2023/01/17 09:29:46;;;;;;;52.80;22.10;;;0.90;99.90;;;;;;5017082;28;20543;-80
2023/01/17 09:32:16;;;;;;;48.42;20.33;;;1.00;99.90;;;;;;5014968;28;20502;-80
2023/01/17 09:34:45;;;;;;;41.08;18.20;;;1.10;99.90;;;;;;5001997;28;20042;-79
2023/01/17 09:37:13;;;;;;;46.70;19.65;;;1.00;99.90;;;;;;5017361;28;20065;-82
2023/01/17 09:39:40;;;;;;;43.03;20.67;;;0.80;99.90;;;;;;5005719;28;20561;-80
2023/01/17 09:42:19;;;;;;;46.80;20.42;;;0.80;99.90;;;;;;5015452;28;20045;-80
2023/01/17 09:44:50;;;;;;;43.85;19.60;;;0.90;99.90;;;;;;5026394;28;20045;-80
2023/01/17 09:47:30;;;;;;;49.90;22.98;;;0.90;99.90;;;;;;5019521;28;20042;-81
2023/01/17 09:50:24;;;;;;;45.75;20.13;;;0.90;99.90;;;;;;5020286;28;20045;-80
2023/01/17 09:53:00;;;;;;;40.78;18.08;;;1.00;99.90;;;;;;4984807;28;20072;-79
2023/01/17 09:55:38;;;;;;;46.72;22.55;;;0.90;99.90;;;;;;4998324;28;20048;-80
2023/01/17 09:58:11;;;;;;;44.72;18.52;;;0.90;99.90;;;;;;4992152;28;20550;-80
2023/01/17 10:01:03;;;;;;;50.35;22.63;;;0.80;99.90;;;;;;4998901;28;20447;-79
2023/01/17 10:03:40;;;;;;;48.47;21.52;;;1.00;99.90;;;;;;5011728;28;20045;-80
2023/01/17 10:06:28;;;;;;;37.50;19.23;;;0.90;99.90;;;;;;5009728;28;20057;-80
2023/01/17 10:09:02;;;;;;;44.47;20.23;;;1.00;99.90;;;;;;5023692;28;20038;-81
2023/01/17 10:11:57;;;;;;;41.67;19.92;;;1.10;99.90;;;;;;5015840;28;20431;-83
2023/01/17 10:14:39;;;;;;;42.75;20.63;;;1.00;99.90;;;;;;5004856;28;21198;-81
2023/01/17 10:17:24;;;;;;;39.08;17.70;;;1.00;99.90;;;;;;5012389;28;20042;-81
2023/01/17 10:20:03;;;;;;;34.60;17.73;;;1.10;99.90;;;;;;5004735;28;20637;-82
2023/01/17 10:22:36;;;;;;;41.92;17.98;;;1.10;99.90;;;;;;5016393;28;20044;-80
2023/01/17 10:25:22;;;;;;;40.25;19.35;;;1.20;99.90;;;;;;5010754;28;20049;-82
2023/01/17 10:28:03;;;;;;;38.58;16.77;;;1.20;99.90;;;;;;5017629;28;20068;-79
2023/01/17 10:30:36;;;;;;;36.72;17.48;;;1.30;99.90;;;;;;5012411;28;20049;-84
2023/01/17 10:33:14;;;;;;;37.38;17.08;;;1.20;99.90;;;;;;5009460;28;20071;-85
2023/01/17 10:35:53;;;;;;;38.22;17.08;;;1.20;99.90;;;;;;4997477;28;20045;-82
2023/01/17 10:38:26;;;;;;;34.47;14.77;;;1.30;99.90;;;;;;5036115;28;20132;-81
2023/01/17 10:40:59;;;;;;;31.27;14.93;;;1.20;99.90;;;;;;4996519;28;20092;-79
2023/01/17 10:43:50;;;;;;;40.30;17.48;;;1.10;99.90;;;;;;5014401;28;20055;-80
2023/01/17 10:46:39;;;;;;;37.47;16.85;;;1.10;99.90;;;;;;4999701;28;20128;-80
2023/01/17 10:49:15;;;;;;;39.25;15.65;;;1.10;99.90;;;;;;4991143;28;20056;-79
2023/01/17 10:52:02;;;;;;;30.98;15.30;;;1.20;99.90;;;;;;5011318;28;20103;-81
2023/01/17 10:54:52;;;;;;;33.03;15.25;;;1.20;99.90;;;;;;4996459;28;20049;-79
2023/01/17 10:57:24;;;;;;;30.98;14.93;;;1.10;99.90;;;;;;5011453;28;20513;-79
2023/01/17 10:59:56;;;;;;;33.92;15.02;;;1.20;99.90;;;;;;5015938;28;20045;-81
2023/01/17 11:02:35;;;;;;;31.52;14.90;;;1.20;99.90;;;;;;5018431;28;20049;-80
2023/01/17 11:05:17;;;;;;;26.55;13.82;;;1.40;99.90;;;;;;5015087;28;20115;-80
2023/01/17 11:07:59;;;;;;;30.98;15.27;;;1.40;99.90;;;;;;5008700;28;20033;-80
2023/01/17 11:10:48;;;;;;;29.52;12.48;;;1.50;99.90;;;;;;5013658;28;20037;-80
2023/01/17 11:13:28;;;;;;;28.20;12.23;;;1.60;99.90;;;;;;5007896;28;20053;-81
2023/01/17 11:16:01;;;;;;;27.27;12.45;;;1.70;99.90;;;;;;5032908;28;20128;-80
2023/01/17 11:18:32;;;;;;;20.92;12.00;;;1.90;99.90;;;;;;5004915;28;20076;-81
2023/01/17 11:21:12;;;;;;;28.65;13.25;;;2.00;99.90;;;;;;5024561;28;20132;-80
2023/01/17 11:23:45;;;;;;;26.20;14.07;;;2.00;99.90;;;;;;5010805;28;20045;-80
2023/01/17 11:26:26;;;;;;;31.55;12.23;;;2.20;99.90;;;;;;5003489;28;20074;-79
2023/01/17 11:29:21;;;;;;;20.23;10.00;;;2.20;99.90;;;;;;5000651;28;20382;-79
2023/01/17 11:31:48;;;;;;;29.07;13.87;;;2.10;99.90;;;;;;5013171;28;20044;-81
2023/01/17 11:34:25;;;;;;;19.73;10.32;;;2.10;99.90;;;;;;4998223;28;20295;-78
2023/01/17 11:37:18;;;;;;;22.98;12.02;;;2.00;99.90;;;;;;5019862;28;20400;-79
2023/01/17 11:39:48;;;;;;;19.40;10.85;;;2.10;99.90;;;;;;5013457;28;20148;-79
2023/01/17 11:42:37;;;;;;;26.73;11.05;;;2.10;99.90;;;;;;5005169;28;20128;-77
2023/01/17 11:45:27;;;;;;;21.90;10.73;;;2.10;99.90;;;;;;5006623;28;20049;-78
2023/01/17 11:48:11;;;;;;;15.27;9.52;;;2.10;99.90;;;;;;5013690;28;20052;-77
2023/01/17 11:50:40;;;;;;;18.85;11.50;;;2.20;99.90;;;;;;5011716;28;20546;-78
2023/01/17 11:53:25;;;;;;;33.40;12.75;;;2.20;99.90;;;;;;5017816;28;20041;-78
2023/01/17 11:56:21;;;;;;;13.85;9.43;;;2.30;99.90;;;;;;4996928;28;20055;-78
2023/01/17 11:58:49;;;;;;;19.20;12.88;;;2.40;99.90;;;;;;5005186;28;20124;-77
2023/01/17 12:01:22;;;;;;;18.92;12.80;;;2.40;99.90;;;;;;4992031;28;20041;-77
2023/01/17 12:03:56;;;;;;;19.67;14.38;;;2.50;99.90;;;;;;4997930;28;20037;-77
2023/01/17 12:06:37;;;;;;;16.30;14.18;;;2.60;99.90;;;;;;5011727;28;20041;-81
2023/01/17 12:09:39;;;;;;;17.15;15.38;;;2.70;99.90;;;;;;5012698;28;20414;-79
2023/01/17 12:15:36;;;;;;;21.75;18.70;;;2.50;99.90;;;;;;5025409;28;20052;-78
2023/01/17 12:18:34;;;;;;;20.77;18.75;;;2.30;99.90;;;;;;5017905;28;20052;-79
2023/01/17 12:21:11;;;;;;;20.65;18.80;;;2.10;99.90;;;;;;5016303;28;20048;-79
2023/01/17 12:23:56;;;;;;;21.70;19.40;;;2.10;99.90;;;;;;5029099;28;20060;-79
2023/01/17 12:26:43;;;;;;;20.13;18.08;;;2.30;99.90;;;;;;4997967;28;20148;-78
2023/01/17 12:29:47;;;;;;;28.02;19.15;;;2.30;99.90;;;;;;4996520;28;20064;-78
2023/01/17 12:32:33;;;;;;;21.42;19.23;;;2.20;99.90;;;;;;5000347;28;20052;-78
2023/01/17 12:35:13;;;;;;;22.73;20.83;;;2.20;99.90;;;;;;5011083;28;20049;-79
2023/01/17 12:37:43;;;;;;;24.00;21.65;;;2.20;99.90;;;;;;4993287;28;20053;-77
2023/01/17 12:40:24;;;;;;;25.02;21.13;;;2.20;99.90;;;;;;4989737;28;20042;-78
2023/01/17 12:43:02;;;;;;;28.70;19.88;;;2.40;99.90;;;;;;5012183;28;20073;-77
2023/01/17 12:45:37;;;;;;;23.75;17.63;;;2.40;99.90;;;;;;5007023;28;20056;-77
2023/01/17 12:48:14;;;;;;;19.15;17.00;;;2.60;99.90;;;;;;5009375;28;20044;-78
2023/01/17 12:50:56;;;;;;;19.33;17.42;;;2.80;99.90;;;;;;5001524;28;20359;-77
2023/01/17 12:53:49;;;;;;;21.60;19.23;;;2.80;99.90;;;;;;5014258;28;20505;-76
2023/01/17 12:56:33;;;;;;;20.73;17.63;;;3.10;99.90;;;;;;5026563;28;20080;-77
2023/01/17 12:59:14;;;;;;;26.15;16.98;;;3.30;99.90;;;;;;5006393;28;20056;-77
2023/01/17 13:01:56;;;;;;;19.00;16.10;;;3.30;99.90;;;;;;5007047;28;20047;-77
2023/01/17 13:04:37;;;;;;;19.00;16.77;;;3.30;99.90;;;;;;5010514;28;20075;-77
2023/01/17 13:07:55;;;;;;;20.77;18.58;;;3.10;99.90;;;;;;4995250;28;20056;-77
2023/01/17 13:10:28;;;;;;;18.50;16.65;;;3.10;99.90;;;;;;4968408;28;20720;-77
2023/01/17 13:13:03;;;;;;;26.15;18.00;;;3.20;99.90;;;;;;5027256;28;20052;-77
2023/01/17 13:15:36;;;;;;;25.80;19.45;;;3.30;99.90;;;;;;5007997;28;20037;-79
2023/01/17 13:18:12;;;;;;;26.33;20.48;;;3.50;99.90;;;;;;5009176;28;20057;-78
2023/01/17 13:20:55;;;;;;;22.95;18.67;;;3.60;99.90;;;;;;5004015;28;20041;-78
2023/01/17 13:23:29;;;;;;;20.45;18.35;;;3.70;99.90;;;;;;5007402;28;20064;-78
2023/01/17 13:25:58;;;;;;;22.95;20.60;;;3.60;99.90;;;;;;4995263;28;20048;-78
2023/01/17 13:28:44;;;;;;;23.73;21.60;;;3.50;99.90;;;;;;5005439;28;20049;-80
2023/01/17 13:31:59;;;;;;;24.15;21.60;;;3.40;99.90;;;;;;4994952;28;20049;-77
2023/01/17 13:34:28;;;;;;;23.38;21.55;;;3.50;99.90;;;;;;4949848;28;20137;-79
2023/01/17 13:37:25;;;;;;;25.33;23.38;;;3.50;99.90;;;;;;5015848;28;20047;-78
2023/01/17 13:39:52;;;;;;;26.50;24.00;;;3.40;99.90;;;;;;4987783;28;20153;-77
2023/01/17 13:42:31;;;;;;;25.60;23.48;;;3.40;99.90;;;;;;5010144;28;20321;-78
2023/01/17 13:44:57;;;;;;;24.80;22.10;;;3.30;99.90;;;;;;5006179;28;20357;-77
2023/01/17 13:47:24;;;;;;;25.30;22.90;;;3.30;99.90;;;;;;4993013;28;20045;-78
2023/01/17 13:49:55;;;;;;;24.77;22.73;;;3.00;99.90;;;;;;4994204;28;20045;-77
2023/01/17 13:52:24;;;;;;;28.48;25.95;;;3.10;99.90;;;;;;5004966;28;20095;-78
2023/01/17 13:54:57;;;;;;;26.55;24.17;;;3.00;99.90;;;;;;5024151;28;20243;-78
2023/01/17 13:57:28;;;;;;;25.60;23.40;;;2.90;99.90;;;;;;5015496;28;20238;-77
2023/01/17 14:00:15;;;;;;;25.08;23.20;;;2.90;99.90;;;;;;5013594;28;20044;-79
2023/01/17 14:02:42;;;;;;;25.58;23.63;;;2.80;99.90;;;;;;5015208;28;20045;-81
2023/01/17 14:05:09;;;;;;;25.25;23.40;;;2.70;99.90;;;;;;5011865;28;20403;-78
2023/01/17 14:07:46;;;;;;;27.42;24.83;;;2.60;99.90;;;;;;5014540;28;20478;-77
2023/01/17 14:10:28;;;;;;;26.13;23.50;;;2.60;99.90;;;;;;5004304;28;20048;-79
2023/01/17 14:12:55;;;;;;;26.63;24.48;;;2.60;99.90;;;;;;5004705;28;20049;-80
2023/01/17 14:15:25;;;;;;;26.77;24.58;;;2.70;99.90;;;;;;4994378;28;20140;-79
2023/01/17 14:18:03;;;;;;;27.73;25.40;;;2.60;99.90;;;;;;5004550;28;20053;-80
2023/01/17 14:20:39;;;;;;;27.85;25.63;;;2.50;99.90;;;;;;4994033;28;20740;-80
2023/01/17 14:23:24;;;;;;;29.38;26.92;;;2.40;99.90;;;;;;4986665;28;20045;-79
2023/01/17 14:25:52;;;;;;;28.55;26.13;;;2.40;99.90;;;;;;5018649;28;20041;-79
2023/01/17 14:28:28;;;;;;;33.35;30.30;;;2.40;99.90;;;;;;5009787;28;20075;-78